Ackermanville, Pennsylvania
Current Conditions -  °F | °C
As of 8:51 AM on Wednesday 22 Oct 2014 (Local Time) from KABE Reporting Station
Light Rain Light Rain  
Wind Chill: 12°   Ceiling: 1700
Heat Index: 12°   Visibility: 5mi
Dew Point: 10°   Wind: 12mph
Humidity: 89%   Direction: 30°NNE
Pressure: 29.95"   Gusts: 18mph
Location:  40.84°N, 75.22°W
Report Text: KABE 221251Z 03010G16KT 5SM -RA BR BKN017 BKN030 OVC055 12/10 A2995 RMK AO2 SLP141 P0003 T01170100
Loading
Personal Weather Stations






























Interactive Weather Map New forecast layout! Learn more

10-Day Weather Forecast

Advertisements
Track Severe Weather on mobile